createdAt,value
2019-02-28T00:00:55.132Z,5.88
2019-02-28T00:03:26.263Z,5.83
2019-02-28T00:05:53.959Z,5.92
2019-02-28T00:08:22.406Z,6.08
2019-02-28T00:10:50.828Z,6.27
2019-02-28T00:13:22.539Z,6.43
2019-02-28T00:15:52.683Z,6.65
2019-02-28T00:18:21.126Z,6.68
2019-02-28T00:20:49.574Z,6.74
2019-02-28T00:23:19.172Z,6.88
2019-02-28T00:25:48.267Z,6.93
2019-02-28T00:28:16.709Z,6.90
2019-02-28T00:30:45.285Z,7.04
2019-02-28T00:33:13.752Z,6.97
2019-02-28T00:35:44.707Z,6.83
2019-02-28T00:38:12.393Z,6.79
2019-02-28T00:40:40.988Z,6.81
2019-02-28T00:43:09.494Z,6.90
2019-02-28T00:45:38.014Z,6.85
2019-02-28T00:48:06.561Z,6.82
2019-02-28T00:50:38.096Z,6.78
2019-02-28T00:53:07.390Z,6.74
2019-02-28T00:55:35.900Z,6.71
2019-02-28T00:58:04.389Z,7.03
2019-02-28T01:00:32.929Z,7.21
2019-02-28T01:03:01.433Z,7.34
2019-02-28T01:05:29.854Z,7.36
2019-02-28T01:07:58.633Z,7.45
2019-02-28T01:10:27.116Z,7.50
2019-02-28T01:12:55.541Z,7.40
2019-02-28T01:15:24.006Z,7.23
2019-02-28T01:17:52.419Z,7.06
2019-02-28T01:20:20.920Z,7.01
2019-02-28T01:22:49.369Z,7.05
2019-02-28T01:25:18.631Z,6.96
2019-02-28T01:27:47.077Z,7.03
2019-02-28T01:30:16.322Z,6.87
2019-02-28T01:32:49.772Z,7.04
2019-02-28T01:35:15.158Z,7.02
2019-02-28T01:37:43.584Z,6.93
2019-02-28T01:40:14.198Z,6.69
2019-02-28T01:42:42.723Z,6.65
2019-02-28T01:45:13.461Z,6.45
2019-02-28T01:47:42.029Z,6.65
2019-02-28T01:50:11.911Z,6.68
2019-02-28T01:52:44.359Z,6.51
2019-02-28T01:55:11.441Z,6.50
2019-02-28T01:57:43.990Z,6.61
2019-02-28T02:00:17.762Z,6.67
2019-02-28T02:02:46.332Z,6.52
2019-02-28T02:05:16.878Z,6.68
2019-02-28T02:07:45.421Z,6.56
2019-02-28T02:10:21.584Z,6.65
2019-02-28T02:12:51.087Z,6.67
2019-02-28T02:15:19.723Z,6.86
2019-02-28T02:17:49.799Z,6.75
2019-02-28T02:20:18.553Z,6.87
2019-02-28T02:22:47.053Z,6.78
2019-02-28T02:25:15.623Z,6.61
2019-02-28T02:27:44.190Z,6.57
2019-02-28T02:30:21.119Z,6.43
2019-02-28T02:32:49.656Z,6.10
2019-02-28T02:35:18.205Z,6.13
2019-02-28T02:37:46.758Z,6.14
2019-02-28T02:40:16.662Z,6.13
2019-02-28T02:42:48.585Z,6.30
2019-02-28T02:45:15.737Z,6.38
2019-02-28T02:47:44.329Z,6.45
2019-02-28T02:50:16.117Z,6.45
2019-02-28T02:52:44.627Z,6.53
2019-02-28T02:55:13.924Z,6.52
2019-02-28T02:57:42.540Z,6.39
2019-02-28T03:00:19.169Z,6.42
2019-02-28T03:02:48.032Z,6.32
2019-02-28T03:05:16.705Z,6.22
2019-02-28T03:07:45.397Z,6.08
2019-02-28T03:10:17.958Z,5.97
2019-02-28T03:12:47.111Z,5.89
2019-02-28T03:15:25.263Z,5.93
2019-02-28T03:17:49.454Z,5.90
2019-02-28T03:20:18.151Z,5.89
2019-02-28T03:22:46.628Z,5.86
2019-02-28T03:25:16.244Z,5.95
2019-02-28T03:27:44.695Z,5.95
2019-02-28T03:30:26.033Z,5.69
2019-02-28T03:32:46.091Z,5.61
2019-02-28T03:35:14.696Z,5.59
2019-02-28T03:37:43.115Z,5.47
2019-02-28T03:40:13.012Z,5.42
2019-02-28T03:42:41.432Z,5.28
2019-02-28T03:45:11.814Z,5.27
2019-02-28T03:47:40.913Z,5.17
2019-02-28T03:50:10.375Z,5.18
2019-02-28T03:52:43.879Z,5.35
2019-02-28T03:55:12.386Z,5.50
2019-02-28T03:57:40.891Z,5.15
2019-02-28T04:00:20.889Z,5.27
2019-02-28T04:02:56.617Z,4.97
2019-02-28T04:05:26.694Z,4.82
2019-02-28T04:07:53.539Z,4.70
2019-02-28T04:10:22.014Z,4.57
2019-02-28T04:12:50.377Z,4.79
2019-02-28T04:15:20.070Z,4.90
2019-02-28T04:17:48.493Z,4.90
2019-02-28T04:20:17.117Z,4.95
2019-02-28T04:22:45.613Z,5.05
2019-02-28T04:25:14.204Z,4.83
2019-02-28T04:27:42.732Z,4.74
2019-02-28T04:30:12.988Z,4.88
2019-02-28T04:32:41.511Z,4.83
2019-02-28T04:35:10.579Z,4.74
2019-02-28T04:37:44.969Z,4.62
2019-02-28T04:40:13.310Z,4.56
2019-02-28T04:42:41.769Z,4.38
2019-02-28T04:45:14.406Z,4.32
2019-02-28T04:47:43.000Z,4.70
2019-02-28T04:50:13.058Z,4.68
2019-02-28T04:52:46.291Z,4.76
2019-02-28T04:55:12.076Z,4.93
2019-02-28T04:57:40.651Z,4.93
2019-02-28T05:00:12.366Z,4.73
2019-02-28T05:02:40.795Z,4.92
2019-02-28T05:05:12.516Z,4.85
2019-02-28T05:07:39.494Z,4.73
2019-02-28T05:10:09.699Z,4.66
2019-02-28T05:12:39.730Z,4.59
2019-02-28T05:15:13.542Z,4.61
2019-02-28T05:17:42.033Z,4.52
2019-02-28T05:20:12.813Z,4.44
2019-02-28T05:22:41.468Z,4.45
2019-02-28T05:25:10.933Z,4.61
2019-02-28T05:27:39.424Z,4.41
2019-02-28T05:30:19.268Z,4.26
2019-02-28T05:32:45.947Z,4.32
2019-02-28T05:35:14.446Z,4.26
2019-02-28T05:37:46.875Z,4.23
2019-02-28T05:40:15.337Z,4.34
2019-02-28T05:42:43.873Z,4.43
2019-02-28T05:45:14.935Z,4.35
2019-02-28T05:47:46.750Z,4.43
2019-02-28T05:50:16.636Z,4.57
2019-02-28T05:52:44.474Z,4.58
2019-02-28T05:55:13.033Z,4.66
2019-02-28T05:57:43.275Z,4.66
2019-02-28T06:00:15.809Z,4.56
2019-02-28T06:02:44.286Z,4.64
2019-02-28T06:05:12.961Z,4.56
2019-02-28T06:07:41.583Z,4.51
2019-02-28T06:10:12.046Z,4.72
2019-02-28T06:12:43.824Z,4.71
2019-02-28T06:15:13.041Z,4.83
2019-02-28T06:17:41.736Z,4.75
2019-02-28T06:20:11.626Z,4.80
2019-02-28T06:22:40.054Z,4.79
2019-02-28T06:25:10.237Z,4.67
2019-02-28T06:27:42.292Z,4.58
2019-02-28T06:30:16.141Z,4.68
2019-02-28T06:32:44.694Z,4.55
2019-02-28T06:35:15.999Z,4.57
2019-02-28T06:37:46.478Z,4.51
2019-02-28T06:40:18.260Z,4.60
2019-02-28T06:42:47.677Z,4.66
2019-02-28T06:45:17.705Z,4.94
2019-02-28T06:47:49.515Z,4.92
2019-02-28T06:50:17.076Z,5.25
2019-02-28T06:52:45.603Z,5.58
2019-02-28T06:55:21.957Z,6.13
2019-02-28T06:57:50.448Z,6.39
2019-02-28T07:00:19.341Z,6.59
2019-02-28T07:02:49.963Z,6.73
2019-02-28T07:05:18.073Z,6.69
2019-02-28T07:07:49.116Z,6.63
2019-02-28T07:10:19.584Z,6.77
2019-02-28T07:12:48.116Z,6.93
2019-02-28T07:15:16.629Z,7.71
2019-02-28T07:17:46.290Z,8.40
2019-02-28T07:20:17.647Z,8.97
2019-02-28T07:22:46.129Z,9.37
2019-02-28T07:25:14.681Z,9.47
2019-02-28T07:27:43.225Z,9.67
2019-02-28T07:30:18.423Z,9.89
2019-02-28T07:32:46.834Z,10.25
2019-02-28T07:35:15.365Z,10.69
2019-02-28T07:37:43.864Z,11.17
2019-02-28T07:40:17.570Z,11.49
2019-02-28T07:42:46.256Z,11.61
2019-02-28T07:45:15.704Z,11.61
2019-02-28T07:47:44.330Z,11.75
2019-02-28T07:50:16.728Z,11.97
2019-02-28T07:52:45.442Z,12.10
2019-02-28T07:55:15.623Z,12.45
2019-02-28T07:57:44.140Z,12.51
2019-02-28T08:00:18.128Z,12.88
2019-02-28T08:02:46.007Z,13.23
2019-02-28T08:05:14.982Z,13.58
2019-02-28T08:07:50.295Z,13.99
2019-02-28T08:10:16.791Z,14.31
2019-02-28T08:12:45.356Z,15.16
2019-02-28T08:15:22.424Z,15.90
2019-02-28T08:17:49.638Z,16.31
2019-02-28T08:20:19.043Z,16.73
2019-02-28T08:22:47.557Z,17.23
2019-02-28T08:25:16.519Z,17.70
2019-02-28T08:27:45.081Z,17.49
2019-02-28T08:30:24.555Z,18.39
2019-02-28T08:32:53.081Z,18.63
2019-02-28T08:35:21.670Z,19.08
2019-02-28T08:37:55.782Z,19.85
2019-02-28T08:40:22.956Z,20.50
2019-02-28T08:42:51.506Z,20.72
2019-02-28T08:45:20.087Z,21.81
2019-02-28T08:47:48.669Z,22.06
2019-02-28T08:50:21.458Z,21.69
2019-02-28T08:52:53.966Z,22.70
2019-02-28T08:55:28.641Z,22.60
2019-02-28T08:57:56.918Z,23.01
2019-02-28T09:00:24.072Z,23.21
2019-02-28T09:02:53.713Z,23.21
2019-02-28T09:05:26.348Z,23.03
2019-02-28T09:07:52.745Z,23.83
2019-02-28T09:10:22.872Z,23.27
2019-02-28T09:12:51.528Z,22.91
2019-02-28T09:15:20.771Z,23.38
2019-02-28T09:17:49.379Z,24.02
2019-02-28T09:20:18.153Z,24.26
2019-02-28T09:22:46.785Z,24.14
2019-02-28T09:25:22.873Z,24.36
2019-02-28T09:27:51.668Z,24.49
2019-02-28T09:30:38.119Z,24.56
2019-02-28T09:33:06.695Z,26.02
2019-02-28T09:35:35.192Z,26.34
2019-02-28T09:38:07.616Z,26.42
2019-02-28T09:40:34.356Z,26.81
2019-02-28T09:43:02.925Z,26.70
2019-02-28T09:45:33.391Z,27.29
2019-02-28T09:48:02.366Z,28.32
2019-02-28T09:50:33.065Z,28.22
2019-02-28T09:53:01.795Z,28.71
2019-02-28T09:55:34.362Z,27.83
2019-02-28T09:58:00.468Z,27.61
2019-02-28T10:00:30.153Z,27.28
2019-02-28T10:02:58.642Z,27.18
2019-02-28T10:05:27.170Z,26.07
2019-02-28T10:08:01.613Z,26.12
2019-02-28T10:10:33.092Z,25.05
2019-02-28T10:13:01.669Z,25.58
2019-02-28T10:15:30.275Z,24.75
2019-02-28T10:18:00.768Z,24.85
2019-02-28T10:20:33.263Z,25.21
2019-02-28T10:23:01.834Z,25.52
2019-02-28T10:25:30.284Z,24.92
2019-02-28T10:28:02.579Z,25.16
2019-02-28T10:30:32.109Z,25.36
2019-02-28T10:32:59.583Z,25.56
2019-02-28T10:35:28.112Z,26.27
2019-02-28T10:37:58.402Z,26.70
2019-02-28T10:40:27.651Z,26.77
2019-02-28T10:42:56.470Z,25.81
2019-02-28T10:45:25.556Z,24.87
2019-02-28T10:47:54.235Z,23.86
2019-02-28T10:50:25.982Z,22.49
2019-02-28T10:52:54.703Z,21.75
2019-02-28T10:55:23.389Z,21.49
2019-02-28T10:57:52.074Z,21.14
2019-02-28T11:00:33.661Z,22.99
2019-02-28T11:03:02.862Z,23.17
2019-02-28T11:05:33.889Z,22.81
2019-02-28T11:08:02.979Z,23.21
2019-02-28T11:10:35.657Z,22.80
2019-02-28T11:13:04.898Z,23.91
2019-02-28T11:15:33.326Z,24.01
2019-02-28T11:18:01.926Z,24.33
2019-02-28T11:20:30.504Z,24.49
2019-02-28T11:22:59.102Z,24.25
2019-02-28T11:25:28.804Z,22.97
2019-02-28T11:27:57.372Z,22.38
2019-02-28T11:30:30.545Z,21.90
2019-02-28T11:33:03.076Z,21.58
2019-02-28T11:35:30.744Z,21.44
2019-02-28T11:37:59.343Z,21.12
2019-02-28T11:40:31.639Z,20.66
2019-02-28T11:43:02.828Z,21.11
2019-02-28T11:45:35.274Z,20.64
2019-02-28T11:48:06.611Z,20.60
2019-02-28T11:50:35.380Z,20.41
2019-02-28T11:53:05.974Z,20.25
2019-02-28T11:55:34.623Z,20.88
2019-02-28T11:58:03.173Z,21.10
2019-02-28T12:00:36.771Z,21.11
2019-02-28T12:03:05.896Z,20.94
2019-02-28T12:05:34.583Z,20.61
2019-02-28T12:08:03.092Z,20.10
2019-02-28T12:10:31.505Z,19.80
2019-02-28T12:12:59.988Z,19.63
2019-02-28T12:15:33.253Z,19.43
2019-02-28T12:18:04.704Z,19.29
2019-02-28T12:20:32.123Z,19.28
2019-02-28T12:23:00.629Z,19.18
2019-02-28T12:25:29.154Z,19.38
2019-02-28T12:27:59.395Z,19.34
2019-02-28T12:30:33.069Z,19.36
2019-02-28T12:33:01.466Z,19.26
2019-02-28T12:35:30.237Z,19.03
2019-02-28T12:37:58.752Z,18.99
2019-02-28T12:40:38.696Z,18.63
2019-02-28T12:43:09.758Z,18.69
2019-02-28T12:45:41.417Z,18.78
2019-02-28T12:48:09.917Z,18.64
2019-02-28T12:50:38.445Z,18.85
2019-02-28T12:53:07.100Z,18.79
2019-02-28T12:55:38.697Z,18.95
2019-02-28T12:58:05.821Z,18.87
2019-02-28T13:00:39.617Z,18.79
2019-02-28T13:03:10.016Z,18.89
2019-02-28T13:05:38.445Z,18.85
2019-02-28T13:08:07.217Z,18.56
2019-02-28T13:10:35.907Z,18.65
2019-02-28T13:13:06.802Z,18.37
2019-02-28T13:15:34.916Z,18.31
2019-02-28T13:18:07.590Z,18.00
2019-02-28T13:20:36.466Z,17.85
2019-02-28T13:23:05.631Z,18.06
2019-02-28T13:25:34.128Z,18.20
2019-02-28T13:28:02.636Z,18.30
2019-02-28T13:30:31.147Z,18.32
2019-02-28T13:32:59.844Z,18.31
2019-02-28T13:35:36.414Z,18.40
2019-02-28T13:38:04.928Z,18.48
2019-02-28T13:40:33.392Z,18.46
2019-02-28T13:43:02.174Z,18.09
2019-02-28T13:45:31.034Z,17.94
2019-02-28T13:47:59.525Z,17.89
2019-02-28T13:50:32.588Z,17.82
2019-02-28T13:53:17.043Z,17.67
2019-02-28T13:55:32.037Z,17.57
2019-02-28T13:58:00.565Z,17.62
2019-02-28T14:00:30.701Z,17.62
2019-02-28T14:03:13.003Z,17.64
2019-02-28T14:05:41.884Z,17.64
2019-02-28T14:08:12.151Z,17.65
2019-02-28T14:10:41.324Z,17.51
2019-02-28T14:13:09.925Z,17.23
2019-02-28T14:15:43.561Z,17.36
2019-02-28T14:18:13.439Z,17.10
2019-02-28T14:20:41.919Z,17.17
2019-02-28T14:23:10.416Z,17.29
2019-02-28T14:25:39.817Z,17.27
2019-02-28T14:28:09.284Z,17.17
2019-02-28T14:30:37.811Z,17.03
2019-02-28T14:33:06.519Z,17.19
2019-02-28T14:35:37.599Z,16.97
2019-02-28T14:38:05.816Z,16.90
2019-02-28T14:40:34.390Z,16.85
2019-02-28T14:43:02.876Z,16.75
2019-02-28T14:45:43.011Z,16.55
2019-02-28T14:48:10.599Z,16.60
2019-02-28T14:50:39.457Z,16.55
2019-02-28T14:53:13.093Z,16.56
2019-02-28T14:55:38.358Z,16.49
2019-02-28T14:58:07.789Z,16.40
2019-02-28T15:00:38.932Z,16.45
2019-02-28T15:03:07.071Z,16.31
2019-02-28T15:05:38.215Z,16.25
2019-02-28T15:08:07.271Z,16.01
2019-02-28T15:10:35.874Z,16.25
2019-02-28T15:13:05.131Z,16.01
2019-02-28T15:15:36.154Z,16.21
2019-02-28T15:18:04.759Z,16.02
2019-02-28T15:20:33.402Z,15.90
2019-02-28T15:23:03.844Z,15.88
2019-02-28T15:25:32.418Z,15.90
2019-02-28T15:28:00.919Z,15.81
2019-02-28T15:30:39.511Z,15.79
2019-02-28T15:33:08.099Z,15.74
2019-02-28T15:35:36.666Z,15.84
2019-02-28T15:38:08.778Z,15.74
2019-02-28T15:40:41.715Z,15.72
2019-02-28T15:43:10.268Z,15.86
2019-02-28T15:45:38.932Z,15.72
2019-02-28T15:48:07.480Z,15.78
2019-02-28T15:50:35.955Z,15.76
2019-02-28T15:53:04.751Z,15.68
2019-02-28T15:55:35.219Z,15.70
2019-02-28T15:58:05.763Z,15.45
2019-02-28T16:00:35.584Z,15.44
2019-02-28T16:03:04.395Z,15.52
2019-02-28T16:05:32.891Z,15.42
2019-02-28T16:08:01.490Z,15.39
2019-02-28T16:10:33.096Z,15.41
2019-02-28T16:13:01.673Z,15.43
2019-02-28T16:15:30.305Z,15.33
2019-02-28T16:17:58.922Z,15.24
2019-02-28T16:20:30.446Z,15.11
2019-02-28T16:22:57.738Z,15.01
2019-02-28T16:25:33.580Z,14.91
2019-02-28T16:28:04.557Z,14.87
2019-02-28T16:30:32.928Z,14.74
2019-02-28T16:33:01.473Z,14.48
2019-02-28T16:35:30.053Z,14.53
2019-02-28T16:37:58.585Z,14.15
2019-02-28T16:40:31.568Z,14.13
2019-02-28T16:43:00.025Z,13.92
2019-02-28T16:45:31.166Z,13.73
2019-02-28T16:48:02.990Z,13.79
2019-02-28T16:50:31.602Z,13.77
2019-02-28T16:53:00.143Z,13.70
2019-02-28T16:55:31.064Z,13.53
2019-02-28T16:57:58.939Z,13.41
2019-02-28T17:00:27.816Z,13.31
2019-02-28T17:02:58.014Z,13.37
2019-02-28T17:05:28.231Z,13.24
2019-02-28T17:07:56.967Z,13.32
2019-02-28T17:10:33.183Z,13.25
2019-02-28T17:13:09.491Z,13.15
2019-02-28T17:15:39.689Z,13.28
2019-02-28T17:18:26.187Z,12.99
2019-02-28T17:20:54.667Z,13.04
2019-02-28T17:23:23.182Z,13.08
2019-02-28T17:25:53.438Z,12.96
2019-02-28T17:28:35.687Z,12.77
2019-02-28T17:31:22.349Z,12.83
2019-02-28T17:33:51.433Z,12.79
2019-02-28T17:36:20.636Z,12.67
2019-02-28T17:38:49.232Z,12.69
2019-02-28T17:41:17.740Z,12.70
2019-02-28T17:44:05.704Z,12.66
2019-02-28T17:46:34.181Z,12.57
2019-02-28T17:49:32.755Z,12.63
2019-02-28T17:52:06.944Z,12.63
2019-02-28T17:54:54.213Z,12.63
2019-02-28T17:57:29.734Z,12.62
2019-02-28T18:00:34.930Z,12.39
2019-02-28T18:03:15.384Z,12.50
2019-02-28T18:06:18.569Z,12.45
2019-02-28T18:09:05.193Z,12.46
2019-02-28T18:11:39.149Z,12.41
2019-02-28T18:14:22.761Z,12.51
2019-02-28T18:17:13.773Z,12.36
2019-02-28T18:19:51.095Z,12.37
2019-02-28T18:22:38.298Z,12.32
2019-02-28T18:25:18.882Z,12.35
2019-02-28T18:28:09.688Z,12.36
2019-02-28T18:30:53.515Z,12.16
2019-02-28T18:33:22.018Z,12.01
2019-02-28T18:35:50.653Z,12.04
2019-02-28T18:38:19.099Z,12.14
2019-02-28T18:40:47.718Z,12.07
2019-02-28T18:43:16.194Z,11.93
2019-02-28T18:45:44.739Z,11.68
2019-02-28T18:48:14.575Z,11.73
2019-02-28T18:50:43.436Z,11.61
2019-02-28T18:53:11.880Z,11.57
2019-02-28T18:55:40.414Z,11.52
2019-02-28T18:58:08.877Z,11.37
2019-02-28T19:00:37.453Z,11.43
2019-02-28T19:03:06.109Z,11.35
2019-02-28T19:05:34.561Z,11.28
2019-02-28T19:08:03.108Z,11.22
2019-02-28T19:10:31.615Z,11.12
2019-02-28T19:13:00.062Z,10.91
2019-02-28T19:15:28.653Z,11.00
2019-02-28T19:17:57.074Z,10.65
2019-02-28T19:20:25.548Z,10.78
2019-02-28T19:22:54.014Z,10.63
2019-02-28T19:25:22.459Z,10.34
2019-02-28T19:27:50.968Z,10.17
2019-02-28T19:30:19.573Z,10.14
2019-02-28T19:32:48.065Z,10.11
2019-02-28T19:35:16.601Z,9.80
2019-02-28T19:37:45.181Z,9.80
2019-02-28T19:40:14.496Z,9.63
2019-02-28T19:42:43.030Z,9.73
2019-02-28T19:45:29.724Z,9.79
2019-02-28T19:47:58.227Z,9.84
2019-02-28T19:50:26.731Z,9.79
2019-02-28T19:52:56.752Z,9.72
2019-02-28T19:55:25.290Z,9.83
2019-02-28T19:57:53.745Z,9.83
2019-02-28T20:00:22.349Z,9.53
2019-02-28T20:02:50.830Z,9.73
2019-02-28T20:05:19.640Z,9.62
2019-02-28T20:07:48.076Z,9.69
2019-02-28T20:10:20.387Z,9.61
2019-02-28T20:12:48.957Z,9.72
2019-02-28T20:15:26.371Z,9.60
2019-02-28T20:17:54.959Z,9.61
2019-02-28T20:20:28.642Z,9.73
2019-02-28T20:22:58.645Z,9.73
2019-02-28T20:25:27.201Z,9.64
2019-02-28T20:27:55.682Z,9.62
2019-02-28T20:30:25.928Z,9.57
2019-02-28T20:32:54.516Z,9.77
2019-02-28T20:35:26.466Z,9.59
2019-02-28T20:37:53.404Z,9.59
2019-02-28T20:40:27.416Z,9.62
2019-02-28T20:42:55.942Z,9.67
2019-02-28T20:45:24.476Z,9.70
2019-02-28T20:47:52.970Z,9.60
2019-02-28T20:50:48.211Z,9.59
2019-02-28T20:53:16.648Z,9.64
2019-02-28T20:55:45.155Z,9.39
2019-02-28T20:58:13.616Z,9.59
2019-02-28T21:00:42.023Z,9.47
2019-02-28T21:03:10.449Z,9.36
2019-02-28T21:05:38.975Z,9.29
2019-02-28T21:08:07.556Z,9.25
2019-02-28T21:10:36.147Z,9.32
2019-02-28T21:13:04.842Z,9.29
2019-02-28T21:15:33.335Z,9.52
2019-02-28T21:18:01.777Z,9.40
2019-02-28T21:20:30.226Z,9.30
2019-02-28T21:22:59.647Z,9.24
2019-02-28T21:25:28.149Z,9.23
2019-02-28T21:27:56.592Z,9.23
2019-02-28T21:30:26.757Z,9.23
2019-02-28T21:32:56.896Z,9.25
2019-02-28T21:35:26.136Z,9.12
2019-02-28T21:37:54.763Z,9.20
2019-02-28T21:40:24.072Z,9.22
2019-02-28T21:42:52.592Z,9.33
2019-02-28T21:45:30.015Z,9.29
2019-02-28T21:47:58.480Z,9.26
2019-02-28T21:50:26.894Z,9.09
2019-02-28T21:52:57.496Z,9.15
2019-02-28T21:55:25.743Z,9.37
2019-02-28T21:57:54.277Z,9.36
2019-02-28T22:00:27.794Z,9.36
2019-02-28T22:02:56.320Z,9.23
2019-02-28T22:05:24.827Z,9.24
2019-02-28T22:07:53.268Z,9.26
2019-02-28T22:10:21.793Z,9.10
2019-02-28T22:12:50.329Z,9.19
2019-02-28T22:15:22.905Z,9.14
2019-02-28T22:17:51.406Z,9.00
2019-02-28T22:20:19.993Z,8.92
2019-02-28T22:22:48.555Z,8.84
2019-02-28T22:25:17.661Z,8.90
2019-02-28T22:27:46.209Z,8.92
2019-02-28T22:30:37.712Z,8.84
2019-02-28T22:33:14.238Z,8.79
2019-02-28T22:35:44.291Z,8.74
2019-02-28T22:38:12.821Z,8.83
2019-02-28T22:40:41.314Z,8.78
2019-02-28T22:43:09.789Z,8.68
2019-02-28T22:45:38.226Z,8.72
2019-02-28T22:48:08.177Z,8.74
2019-02-28T22:50:36.579Z,8.72
2019-02-28T22:53:05.177Z,8.60
2019-02-28T22:55:33.765Z,8.48
2019-02-28T22:58:10.521Z,8.59
2019-02-28T23:01:07.864Z,8.55
2019-02-28T23:03:37.044Z,8.54
2019-02-28T23:06:06.240Z,8.46
2019-02-28T23:08:34.719Z,8.46
2019-02-28T23:11:03.346Z,8.43
2019-02-28T23:13:31.935Z,8.33
2019-02-28T23:16:00.415Z,8.18
2019-02-28T23:18:29.089Z,8.29
2019-02-28T23:20:57.512Z,8.25
2019-02-28T23:23:25.964Z,8.24
2019-02-28T23:25:54.376Z,8.29
2019-02-28T23:28:28.357Z,8.34
2019-02-28T23:31:19.494Z,8.32
2019-02-28T23:33:47.928Z,8.35
2019-02-28T23:36:16.349Z,8.27
2019-02-28T23:38:44.991Z,8.25
2019-02-28T23:41:13.396Z,8.24
2019-02-28T23:43:41.875Z,8.21
2019-02-28T23:46:10.411Z,8.11
2019-02-28T23:48:38.826Z,8.11
2019-02-28T23:51:07.405Z,8.18
2019-02-28T23:53:35.864Z,8.05
2019-02-28T23:56:04.420Z,8.04
2019-02-28T23:58:32.953Z,8.21
